createdAt,value
2017-09-17T00:00:55.323Z,97.17
2017-09-17T00:01:55.617Z,97.27
2017-09-17T00:02:55.610Z,97.55
2017-09-17T00:03:55.291Z,97.27
2017-09-17T00:04:55.593Z,97.27
2017-09-17T00:05:55.581Z,97.55
2017-09-17T00:06:55.578Z,97.55
2017-09-17T00:07:55.562Z,97.46
2017-09-17T00:08:55.559Z,97.17
2017-09-17T00:09:55.547Z,97.36
2017-09-17T00:10:55.537Z,97.55
2017-09-17T00:11:55.528Z,97.08
2017-09-17T00:12:55.521Z,97.27
2017-09-17T00:13:55.510Z,97.17
2017-09-17T00:14:55.501Z,97.08
2017-09-17T00:15:55.492Z,97.17
2017-09-17T00:16:55.483Z,97.08
2017-09-17T00:17:55.479Z,97.17
2017-09-17T00:18:55.465Z,97.46
2017-09-17T00:19:55.458Z,97.55
2017-09-17T00:20:55.445Z,97.17
2017-09-17T00:21:55.129Z,97.27
2017-09-17T00:22:55.429Z,97.17
2017-09-17T00:23:55.434Z,97.27
2017-09-17T00:24:55.409Z,97.46
2017-09-17T00:25:55.409Z,97.46
2017-09-17T00:26:55.393Z,97.46
2017-09-17T00:27:55.383Z,97.65
2017-09-17T00:28:55.377Z,97.46
2017-09-17T00:29:55.367Z,97.17
2017-09-17T00:30:55.355Z,97.36
2017-09-17T00:31:55.348Z,97.31
2017-09-17T00:32:55.337Z,97.46
2017-09-17T00:33:55.328Z,97.31
2017-09-17T00:34:55.320Z,97.17
2017-09-17T00:35:55.314Z,97.13
2017-09-17T00:36:55.301Z,97.13
2017-09-17T00:37:55.292Z,96.94
2017-09-17T00:38:55.282Z,96.94
2017-09-17T00:39:55.273Z,97.13
2017-09-17T00:40:54.953Z,97.22
2017-09-17T00:41:55.256Z,97.22
2017-09-17T00:42:55.245Z,97.22
2017-09-17T00:43:55.237Z,97.22
2017-09-17T00:44:55.226Z,97.13
2017-09-17T00:45:55.218Z,96.94
2017-09-17T00:46:55.207Z,97.13
2017-09-17T00:47:55.205Z,97.22
2017-09-17T00:48:55.189Z,96.94
2017-09-17T00:49:55.180Z,96.94
2017-09-17T00:50:55.209Z,96.94
2017-09-17T00:51:55.164Z,97.13
2017-09-17T00:52:55.160Z,97.31
2017-09-17T00:53:55.145Z,97.31
2017-09-17T00:54:55.137Z,97.6
2017-09-17T00:55:55.129Z,97.6
2017-09-17T00:56:55.117Z,97.41
2017-09-17T00:57:55.118Z,97.79
2017-09-17T00:58:55.101Z,97.22
2017-09-17T00:59:55.087Z,97.41
2017-09-17T01:00:55.076Z,97.41
2017-09-17T01:01:55.072Z,97.22
2017-09-17T01:02:55.065Z,97.22
2017-09-17T01:03:55.050Z,97.13
2017-09-17T01:04:55.042Z,97.03
2017-09-17T01:05:55.030Z,96.94
2017-09-17T01:06:55.020Z,97.22
2017-09-17T01:07:55.011Z,97.22
2017-09-17T01:08:55.001Z,97.22
2017-09-17T01:09:54.993Z,97.13
2017-09-17T01:10:54.986Z,97.13
2017-09-17T01:11:54.665Z,97.22
2017-09-17T01:12:54.968Z,97.31
2017-09-17T01:13:54.959Z,97.22
2017-09-17T01:14:54.948Z,96.94
2017-09-17T01:15:55.187Z,97.22
2017-09-17T01:16:54.620Z,97.22
2017-09-17T01:17:54.610Z,97.31
2017-09-17T01:18:54.910Z,97.41
2017-09-17T01:19:54.901Z,97.5
2017-09-17T01:20:54.891Z,97.41
2017-09-17T01:21:54.884Z,97.31
2017-09-17T01:22:54.870Z,97.22
2017-09-17T01:23:54.863Z,97.31
2017-09-17T01:24:54.852Z,97.5
2017-09-17T01:25:54.841Z,97.69
2017-09-17T01:26:54.836Z,97.6
2017-09-17T01:27:54.826Z,97.79
2017-09-17T01:28:54.819Z,97.88
2017-09-17T01:29:54.802Z,97.41
2017-09-17T01:30:54.798Z,97.6
2017-09-17T01:31:54.783Z,97.64
2017-09-17T01:32:54.781Z,97.55
2017-09-17T01:33:54.769Z,97.69
2017-09-17T01:34:54.758Z,97.6
2017-09-17T01:35:54.751Z,97.6
2017-09-17T01:36:54.739Z,97.5
2017-09-17T01:37:54.727Z,97.6
2017-09-17T01:38:54.722Z,97.6
2017-09-17T01:39:54.709Z,97.69
2017-09-17T01:40:54.698Z,97.79
2017-09-17T01:41:54.692Z,97.64
2017-09-17T01:42:54.682Z,97.27
2017-09-17T01:43:54.676Z,97.45
2017-09-17T01:44:54.354Z,97.64
2017-09-17T01:45:54.654Z,97.36
2017-09-17T01:46:54.641Z,97.36
2017-09-17T01:47:54.640Z,97.36
2017-09-17T01:48:54.621Z,97.17
2017-09-17T01:49:54.619Z,97.45
2017-09-17T01:50:54.297Z,97.74
2017-09-17T01:51:54.596Z,97.55
2017-09-17T01:52:54.587Z,97.74
2017-09-17T01:53:54.577Z,98.03
2017-09-17T01:54:54.570Z,97.74
2017-09-17T01:55:54.556Z,97.36
2017-09-17T01:56:54.237Z,97.55
2017-09-17T01:57:54.534Z,97.55
2017-09-17T01:58:54.527Z,97.69
2017-09-17T01:59:54.520Z,97.74
2017-09-17T02:00:54.508Z,97.74
2017-09-17T02:01:54.497Z,97.27
2017-09-17T02:02:54.181Z,97.45
2017-09-17T02:03:54.481Z,97.55
2017-09-17T02:04:54.471Z,97.36
2017-09-17T02:05:54.461Z,97.17
2017-09-17T02:06:54.452Z,97.64
2017-09-17T02:07:54.133Z,97.64
2017-09-17T02:08:54.432Z,97.45
2017-09-17T02:09:54.421Z,97.17
2017-09-17T02:10:54.414Z,97.27
2017-09-17T02:11:54.400Z,97.36
2017-09-17T02:12:54.392Z,97.08
2017-09-17T02:13:54.384Z,97.17
2017-09-17T02:14:54.065Z,97.08
2017-09-17T02:15:54.363Z,96.98
2017-09-17T02:16:54.352Z,97.08
2017-09-17T02:17:54.348Z,97.08
2017-09-17T02:18:54.335Z,96.89
2017-09-17T02:19:54.017Z,97.17
2017-09-17T02:20:54.313Z,97.27
2017-09-17T02:21:54.302Z,97.27
2017-09-17T02:22:54.297Z,97.55
2017-09-17T02:23:54.286Z,97.36
2017-09-17T02:24:54.275Z,97.55
2017-09-17T02:25:54.267Z,97.55
2017-09-17T02:26:54.258Z,97.55
2017-09-17T02:27:54.251Z,97.55
2017-09-17T02:28:54.236Z,97.36
2017-09-17T02:29:54.226Z,97.36
2017-09-17T02:30:54.225Z,97.36
2017-09-17T02:31:54.208Z,97.08
2017-09-17T02:32:54.200Z,97.27
2017-09-17T02:33:53.882Z,97.17
2017-09-17T02:34:54.182Z,97.36
2017-09-17T02:35:54.168Z,97.17
2017-09-17T02:36:54.159Z,97.27
2017-09-17T02:37:54.153Z,97.55
2017-09-17T02:38:54.150Z,97.64
2017-09-17T02:39:54.132Z,97.36
2017-09-17T02:40:54.122Z,97.36
2017-09-17T02:41:54.113Z,97.27
2017-09-17T02:42:54.102Z,97.27
2017-09-17T02:43:54.091Z,97.45
2017-09-17T02:44:54.082Z,97.93
2017-09-17T02:45:54.072Z,97.64
2017-09-17T02:46:54.062Z,97.55
2017-09-17T02:47:54.053Z,97.55
2017-09-17T02:48:53.733Z,97.55
2017-09-17T02:49:54.039Z,97.93
2017-09-17T02:50:53.711Z,97.93
2017-09-17T02:51:54.012Z,98.03
2017-09-17T02:52:54.005Z,97.36
2017-09-17T02:53:53.999Z,97.17
2017-09-17T02:54:53.988Z,97.55
2017-09-17T02:55:53.665Z,97.27
2017-09-17T02:56:53.960Z,97.17
2017-09-17T02:57:53.953Z,97.64
2017-09-17T02:58:53.945Z,97.74
2017-09-17T02:59:53.935Z,97.83
2017-09-17T03:00:53.928Z,97.36
2017-09-17T03:01:53.918Z,97.45
2017-09-17T03:02:53.902Z,97.74
2017-09-17T03:03:53.892Z,97.93
2017-09-17T03:04:53.888Z,97.55
2017-09-17T03:05:53.875Z,98.03
2017-09-17T03:06:53.864Z,97.55
2017-09-17T03:07:53.856Z,97.64
2017-09-17T03:08:53.845Z,97.83
2017-09-17T03:09:53.835Z,97.74
2017-09-17T03:10:53.822Z,97.64
2017-09-17T03:11:53.815Z,97.93
2017-09-17T03:12:53.802Z,97.55
2017-09-17T03:13:53.797Z,97.55
2017-09-17T03:14:53.785Z,97.93
2017-09-17T03:15:53.812Z,97.93
2017-09-17T03:16:53.763Z,97.93
2017-09-17T03:17:53.753Z,97.83
2017-09-17T03:18:53.744Z,97.93
2017-09-17T03:19:53.738Z,97.55
2017-09-17T03:20:53.415Z,97.83
2017-09-17T03:21:53.716Z,97.93
2017-09-17T03:23:53.694Z,97.74
2017-09-17T03:24:53.686Z,97.74
2017-09-17T03:25:53.366Z,97.74
2017-09-17T03:26:53.665Z,97.74
2017-09-17T03:27:53.656Z,97.64
2017-09-17T03:28:53.645Z,97.64
2017-09-17T03:29:53.328Z,97.78
2017-09-17T03:30:53.627Z,97.64
2017-09-17T03:31:53.612Z,97.97
2017-09-17T03:32:53.604Z,97.78
2017-09-17T03:33:53.607Z,97.5
2017-09-17T03:34:53.274Z,97.97
2017-09-17T03:35:53.575Z,97.74
2017-09-17T03:36:53.257Z,97.41
2017-09-17T03:37:53.245Z,97.69
2017-09-17T03:38:53.549Z,98.03
2017-09-17T03:39:53.536Z,97.69
2017-09-17T03:40:53.527Z,97.55
2017-09-17T03:41:53.513Z,97.93
2017-09-17T03:42:53.504Z,97.5
2017-09-17T03:43:53.495Z,97.93
2017-09-17T03:44:53.484Z,97.78
2017-09-17T03:45:53.472Z,97.78
2017-09-17T03:46:53.468Z,97.69
2017-09-17T03:47:53.456Z,97.88
2017-09-17T03:48:53.449Z,97.64
2017-09-17T03:49:53.438Z,98.12
2017-09-17T03:50:53.426Z,97.69
2017-09-17T03:51:53.415Z,97.78
2017-09-17T03:52:53.094Z,97.5
2017-09-17T03:53:53.391Z,98.12
2017-09-17T03:54:53.386Z,98.07
2017-09-17T03:55:53.374Z,97.5
2017-09-17T03:56:53.372Z,97.69
2017-09-17T03:57:53.352Z,97.93
2017-09-17T03:58:53.345Z,97.78
2017-09-17T03:59:53.336Z,97.69
2017-09-17T04:00:53.331Z,98.07
2017-09-17T04:01:53.311Z,97.78
2017-09-17T04:02:53.307Z,97.88
2017-09-17T04:03:53.297Z,97.78
2017-09-17T04:04:53.286Z,97.83
2017-09-17T04:05:53.275Z,97.78
2017-09-17T04:06:53.265Z,97.88
2017-09-17T04:07:53.253Z,97.74
2017-09-17T04:08:52.937Z,97.97
2017-09-17T04:09:53.233Z,97.83
2017-09-17T04:10:53.226Z,98.22
2017-09-17T04:11:52.906Z,98.31
2017-09-17T04:12:53.218Z,97.93
2017-09-17T04:13:52.884Z,97.88
2017-09-17T04:14:53.189Z,97.88
2017-09-17T04:15:53.198Z,97.69
2017-09-17T04:16:53.165Z,97.55
2017-09-17T04:17:53.155Z,97.97
2017-09-17T04:18:53.143Z,97.69
2017-09-17T04:19:53.148Z,97.5
2017-09-17T04:20:53.128Z,97.88
2017-09-17T04:21:53.115Z,97.97
2017-09-17T04:22:53.104Z,97.78
2017-09-17T04:23:53.092Z,97.78
2017-09-17T04:24:53.086Z,97.69
2017-09-17T04:25:53.070Z,97.78
2017-09-17T04:26:53.066Z,97.69
2017-09-17T04:27:53.054Z,97.88
2017-09-17T04:28:53.047Z,97.78
2017-09-17T04:29:53.032Z,97.78
2017-09-17T04:30:53.022Z,97.69
2017-09-17T04:31:53.013Z,97.88
2017-09-17T04:32:53.005Z,97.78
2017-09-17T04:33:52.997Z,97.6
2017-09-17T04:34:52.984Z,97.88
2017-09-17T04:35:52.974Z,97.97
2017-09-17T04:36:52.962Z,97.97
2017-09-17T04:37:52.953Z,97.88
2017-09-17T04:38:52.943Z,97.6
2017-09-17T04:39:52.932Z,97.88
2017-09-17T04:40:52.612Z,97.78
2017-09-17T04:41:52.914Z,97.6
2017-09-17T04:42:52.903Z,97.5
2017-09-17T04:43:52.892Z,97.69
2017-09-17T04:44:52.571Z,97.5
2017-09-17T04:45:52.874Z,97.5
2017-09-17T04:46:52.862Z,97.88
2017-09-17T04:47:52.851Z,97.78
2017-09-17T04:48:52.840Z,97.78
2017-09-17T04:49:52.832Z,97.6
2017-09-17T04:50:52.819Z,97.88
2017-09-17T04:51:52.811Z,97.83
2017-09-17T04:52:52.800Z,97.74
2017-09-17T04:53:52.792Z,97.78
2017-09-17T04:54:52.780Z,97.78
2017-09-17T04:55:52.771Z,97.69
2017-09-17T04:56:52.759Z,97.83
2017-09-17T04:57:52.752Z,97.64
2017-09-17T04:58:52.741Z,97.83
2017-09-17T04:59:52.731Z,98.03
2017-09-17T05:00:52.718Z,97.83
2017-09-17T05:01:52.718Z,97.36
2017-09-17T05:02:52.698Z,97.74
2017-09-17T05:03:52.691Z,97.45
2017-09-17T05:04:52.680Z,97.45
2017-09-17T05:05:52.362Z,97.83
2017-09-17T05:06:52.660Z,98.03
2017-09-17T05:07:52.651Z,98.12
2017-09-17T05:08:52.361Z,97.45
2017-09-17T05:09:52.661Z,97.45
2017-09-17T05:10:52.623Z,97.74
2017-09-17T05:11:52.611Z,97.55
2017-09-17T05:12:52.601Z,97.64
2017-09-17T05:13:52.591Z,97.36
2017-09-17T05:14:52.582Z,97.74
2017-09-17T05:15:52.572Z,97.45
2017-09-17T05:16:52.559Z,97.55
2017-09-17T05:17:52.244Z,97.93
2017-09-17T05:18:52.544Z,97.93
2017-09-17T05:19:52.224Z,97.5
2017-09-17T05:20:52.521Z,97.6
2017-09-17T05:21:52.509Z,97.98
2017-09-17T05:22:52.193Z,97.6
2017-09-17T05:23:52.184Z,97.41
2017-09-17T05:24:52.482Z,97.79
2017-09-17T05:25:52.475Z,97.6
2017-09-17T05:26:52.154Z,97.6
2017-09-17T05:27:52.456Z,97.17
2017-09-17T05:28:52.451Z,97.27
2017-09-17T05:29:52.438Z,97.17
2017-09-17T05:30:52.428Z,97.17
2017-09-17T05:31:52.420Z,97.08
2017-09-17T05:32:52.409Z,97.27
2017-09-17T05:33:52.403Z,97.6
2017-09-17T05:34:52.394Z,97.31
2017-09-17T05:35:52.384Z,97.03
2017-09-17T05:36:52.376Z,97.31
2017-09-17T05:37:52.369Z,96.55
2017-09-17T05:38:52.359Z,96.94
2017-09-17T05:39:52.352Z,96.65
2017-09-17T05:40:52.342Z,96.46
2017-09-17T05:41:52.331Z,96.12
2017-09-17T05:42:52.016Z,96.12
2017-09-17T05:43:52.009Z,96.6
2017-09-17T05:44:52.306Z,96.22
2017-09-17T05:45:51.992Z,96.32
2017-09-17T05:46:51.982Z,96.03
2017-09-17T05:47:52.288Z,96.03
2017-09-17T05:48:52.275Z,95.89
2017-09-17T05:49:52.268Z,95.98
2017-09-17T05:50:51.952Z,95.7
2017-09-17T05:51:52.255Z,95.32
2017-09-17T05:52:52.244Z,95.32
2017-09-17T05:53:52.236Z,95.12
2017-09-17T05:54:52.228Z,94.74
2017-09-17T05:55:52.224Z,95.03
2017-09-17T05:56:52.216Z,94.65
2017-09-17T05:57:52.215Z,95.37
2017-09-17T05:58:52.201Z,94.89
2017-09-17T05:59:51.885Z,94.98
2017-09-17T06:00:51.878Z,94.79
2017-09-17T06:01:52.177Z,95.12
2017-09-17T06:02:52.175Z,95.03
2017-09-17T06:03:52.166Z,94.36
2017-09-17T06:04:52.163Z,94.36
2017-09-17T06:05:52.155Z,94.41
2017-09-17T06:06:52.150Z,94.22
2017-09-17T06:07:52.155Z,94.07
2017-09-17T06:08:51.826Z,93.88
2017-09-17T06:09:52.132Z,93.79
2017-09-17T06:10:51.816Z,93.5
2017-09-17T06:11:52.122Z,93.45
2017-09-17T06:12:51.806Z,93.07
2017-09-17T06:13:52.106Z,93.6
2017-09-17T06:14:52.105Z,92.35
2017-09-17T06:15:52.099Z,92.83
2017-09-17T06:16:52.095Z,92.69
2017-09-17T06:17:52.086Z,91.92
2017-09-17T06:18:52.085Z,91.68
2017-09-17T06:19:52.081Z,91.49
2017-09-17T06:20:52.077Z,91.49
2017-09-17T06:21:52.076Z,90.96
2017-09-17T06:22:52.069Z,90.48
2017-09-17T06:23:52.069Z,90.43
2017-09-17T06:24:52.068Z,89.76
2017-09-17T06:25:52.059Z,89.51
2017-09-17T06:26:52.056Z,88.46
2017-09-17T06:27:52.050Z,88.31
2017-09-17T06:28:52.048Z,87.35
2017-09-17T06:29:52.048Z,87.26
2017-09-17T06:30:52.045Z,86.44
2017-09-17T06:31:52.038Z,85.67
2017-09-17T06:32:52.041Z,84.81
2017-09-17T06:33:52.036Z,84.04
2017-09-17T06:34:52.034Z,83.8
2017-09-17T06:35:52.034Z,83.31
2017-09-17T06:36:52.044Z,83.12
2017-09-17T06:37:52.035Z,82.93
2017-09-17T06:38:52.028Z,82.45
2017-09-17T06:39:52.027Z,82.07
2017-09-17T06:40:52.025Z,81.43
2017-09-17T06:41:52.027Z,81.24
2017-09-17T06:42:52.036Z,80.96
2017-09-17T06:43:52.021Z,79.99
2017-09-17T06:44:52.019Z,79.71
2017-09-17T06:45:52.020Z,79.36
2017-09-17T06:46:52.017Z,78.5
2017-09-17T06:47:51.707Z,77.73
2017-09-17T06:48:52.017Z,78.11
2017-09-17T06:49:51.707Z,77.53
2017-09-17T06:50:52.012Z,77.63
2017-09-17T06:51:52.014Z,77.34
2017-09-17T06:52:52.013Z,76.48
2017-09-17T06:53:52.015Z,76.48
2017-09-17T06:54:52.012Z,76.48
2017-09-17T06:55:52.016Z,77.15
2017-09-17T06:56:52.012Z,77.06
2017-09-17T06:57:51.701Z,76.39
2017-09-17T06:58:52.012Z,76.77
2017-09-17T06:59:52.011Z,75.75
2017-09-17T07:00:52.010Z,75.94
2017-09-17T07:01:52.013Z,76.04
2017-09-17T07:02:52.010Z,75.37
2017-09-17T07:03:52.010Z,75.56
2017-09-17T07:04:52.004Z,74.88
2017-09-17T07:05:52.012Z,74.88
2017-09-17T07:06:52.007Z,74.4
2017-09-17T07:07:52.008Z,74.79
2017-09-17T07:08:52.006Z,74.79
2017-09-17T07:09:52.007Z,74.5
2017-09-17T07:10:52.005Z,74.88
2017-09-17T07:11:52.009Z,74.6
2017-09-17T07:12:52.006Z,74.6
2017-09-17T07:13:52.006Z,74.6
2017-09-17T07:14:52.013Z,74.63
2017-09-17T07:15:52.011Z,74.05
2017-09-17T07:16:52.007Z,73.92
2017-09-17T07:17:52.004Z,73.83
2017-09-17T07:18:52.009Z,73.83
2017-09-17T07:19:52.005Z,73.63
2017-09-17T07:20:52.009Z,74.21
2017-09-17T07:21:52.004Z,74.11
2017-09-17T07:22:52.007Z,73.73
2017-09-17T07:23:52.004Z,74.5
2017-09-17T07:24:52.000Z,74.69
2017-09-17T07:25:52.003Z,74.5
2017-09-17T07:26:52.033Z,74.6
2017-09-17T07:27:51.998Z,74.4
2017-09-17T07:28:51.998Z,74.46
2017-09-17T07:29:51.996Z,74.75
2017-09-17T07:30:52.000Z,74.65
2017-09-17T07:31:51.996Z,75.32
2017-09-17T07:32:51.999Z,75.23
2017-09-17T07:33:51.995Z,75.71
2017-09-17T07:34:51.993Z,75.62
2017-09-17T07:35:51.992Z,76.09
2017-09-17T07:36:51.993Z,75.71
2017-09-17T07:37:51.994Z,75.9
2017-09-17T07:38:51.992Z,75.13
2017-09-17T07:39:51.991Z,75.56
2017-09-17T07:40:51.989Z,75.27
2017-09-17T07:41:51.991Z,75.27
2017-09-17T07:42:51.987Z,75.37
2017-09-17T07:43:51.987Z,75.37
2017-09-17T07:44:51.986Z,75.46
2017-09-17T07:45:51.982Z,75.65
2017-09-17T07:46:51.677Z,75.37
2017-09-17T07:47:52.182Z,75.07
2017-09-17T07:48:51.985Z,74.88
2017-09-17T07:49:51.984Z,74.88
2017-09-17T07:50:51.984Z,74.88
2017-09-17T07:51:51.983Z,74.98
2017-09-17T07:52:51.981Z,74.63
2017-09-17T07:53:51.986Z,74.63
2017-09-17T07:54:51.673Z,74.63
2017-09-17T07:55:51.670Z,74.05
2017-09-17T07:56:51.980Z,74.05
2017-09-17T07:57:51.978Z,74.25
2017-09-17T07:58:51.668Z,74.15
2017-09-17T07:59:51.978Z,73.86
2017-09-17T08:00:51.975Z,73.38
2017-09-17T08:01:51.978Z,73.86
2017-09-17T08:02:51.977Z,73.92
2017-09-17T08:03:51.976Z,74.5
2017-09-17T08:04:51.975Z,74.6
2017-09-17T08:05:51.974Z,75.27
2017-09-17T08:06:51.973Z,75.17
2017-09-17T08:07:51.973Z,74.69
2017-09-17T08:08:51.977Z,74.4
2017-09-17T08:09:51.975Z,74.69
2017-09-17T08:10:51.975Z,74.79
2017-09-17T08:11:51.968Z,74.6
2017-09-17T08:12:51.968Z,74.3
2017-09-17T08:13:51.967Z,75.17
2017-09-17T08:14:51.977Z,74.85
2017-09-17T08:15:51.986Z,75.37
2017-09-17T08:16:51.960Z,76
2017-09-17T08:17:51.962Z,75.94
2017-09-17T08:18:51.961Z,75.71
2017-09-17T08:19:51.650Z,75.81
2017-09-17T08:20:51.956Z,76.19
2017-09-17T08:21:51.953Z,76.19
2017-09-17T08:22:51.955Z,76.19
2017-09-17T08:23:51.948Z,76.57
2017-09-17T08:24:51.946Z,76.48
2017-09-17T08:25:51.947Z,76.09
2017-09-17T08:26:51.946Z,76.29
2017-09-17T08:27:51.941Z,76.39
2017-09-17T08:28:51.948Z,77.15
2017-09-17T08:29:51.938Z,76.86
2017-09-17T08:30:51.936Z,76.86
2017-09-17T08:31:51.935Z,76.48
2017-09-17T08:32:51.933Z,76.39
2017-09-17T08:33:51.928Z,76.67
2017-09-17T08:34:51.929Z,76.48
2017-09-17T08:35:51.927Z,76.96
2017-09-17T08:36:51.928Z,77.15
2017-09-17T08:37:51.611Z,77.44
2017-09-17T08:38:51.918Z,77.44
2017-09-17T08:39:51.918Z,77.34
2017-09-17T08:40:51.915Z,77.34
2017-09-17T08:41:51.911Z,77.5
2017-09-17T08:42:51.910Z,77.69
2017-09-17T08:43:51.912Z,77.69
2017-09-17T08:44:51.595Z,78.11
2017-09-17T08:45:51.905Z,77.78
2017-09-17T08:46:51.903Z,78.21
2017-09-17T08:47:51.839Z,78.08
2017-09-17T08:48:51.895Z,78.11
2017-09-17T08:49:51.894Z,77.73
2017-09-17T08:50:51.893Z,78.11
2017-09-17T08:51:51.890Z,77.53
2017-09-17T08:52:51.885Z,77.73
2017-09-17T08:53:51.885Z,77.34
2017-09-17T08:54:51.882Z,77.29
2017-09-17T08:55:51.876Z,76.57
2017-09-17T08:56:51.874Z,76.04
2017-09-17T08:57:51.898Z,76.14
2017-09-17T08:58:51.872Z,75.94
2017-09-17T08:59:51.869Z,75.07
2017-09-17T09:00:51.874Z,75.21
2017-09-17T09:01:51.867Z,75.02
2017-09-17T09:02:51.863Z,74.05
2017-09-17T09:03:51.552Z,73.86
2017-09-17T09:04:51.550Z,73.67
2017-09-17T09:05:51.868Z,73.67
2017-09-17T09:06:51.855Z,73.09
2017-09-17T09:07:51.543Z,73
2017-09-17T09:08:51.852Z,72.32
2017-09-17T09:09:51.851Z,71.55
2017-09-17T09:10:51.846Z,71.55
2017-09-17T09:11:51.844Z,72.13
2017-09-17T09:12:51.847Z,72.32
2017-09-17T09:13:51.533Z,72.13
2017-09-17T09:14:51.837Z,72.32
2017-09-17T09:15:51.836Z,72.13
2017-09-17T09:16:51.839Z,71.17
2017-09-17T09:17:51.833Z,71.08
2017-09-17T09:18:51.834Z,71.17
2017-09-17T09:19:51.832Z,72.23
2017-09-17T09:20:51.826Z,72.19
2017-09-17T09:21:51.826Z,72.32
2017-09-17T09:22:51.827Z,71.65
2017-09-17T09:23:51.825Z,71.36
2017-09-17T09:24:51.820Z,71.17
2017-09-17T09:25:51.819Z,71.36
2017-09-17T09:26:51.816Z,71.84
2017-09-17T09:27:51.816Z,71.26
2017-09-17T09:28:51.506Z,71.55
2017-09-17T09:29:51.814Z,71.26
2017-09-17T09:30:51.810Z,70.78
2017-09-17T09:31:51.501Z,70.98
2017-09-17T09:32:51.807Z,71.2
2017-09-17T09:33:51.804Z,70.92
2017-09-17T09:34:51.808Z,71.4
2017-09-17T09:35:51.800Z,71.4
2017-09-17T09:36:51.800Z,71.49
2017-09-17T09:37:51.800Z,71.69
2017-09-17T09:38:51.798Z,70.15
2017-09-17T09:39:51.796Z,70.15
2017-09-17T09:40:51.831Z,70.82
2017-09-17T09:41:51.793Z,70.15
2017-09-17T09:42:51.791Z,70.62
2017-09-17T09:43:51.479Z,71.2
2017-09-17T09:44:51.787Z,71.59
2017-09-17T09:45:51.782Z,70.62
2017-09-17T09:46:51.782Z,70.62
2017-09-17T09:47:51.777Z,70.24
2017-09-17T09:48:51.777Z,70.43
2017-09-17T09:49:51.778Z,71.4
2017-09-17T09:50:51.776Z,71.01
2017-09-17T09:51:51.774Z,70.62
2017-09-17T09:52:51.464Z,70.53
2017-09-17T09:53:51.460Z,70.62
2017-09-17T09:54:51.769Z,70.34
2017-09-17T09:55:51.768Z,70.24
2017-09-17T09:56:51.765Z,69.38
2017-09-17T09:57:51.770Z,68.8
2017-09-17T09:58:51.762Z,68.35
2017-09-17T09:59:51.765Z,67.97
2017-09-17T10:00:51.759Z,68.13
2017-09-17T10:01:51.753Z,68.03
2017-09-17T10:02:51.753Z,67.55
2017-09-17T10:03:51.752Z,67.65
2017-09-17T10:04:51.750Z,68.03
2017-09-17T10:05:51.744Z,68.22
2017-09-17T10:06:51.745Z,68.22
2017-09-17T10:07:51.744Z,68.22
2017-09-17T10:08:51.743Z,68.22
2017-09-17T10:09:51.432Z,68.03
2017-09-17T10:10:51.428Z,68.8
2017-09-17T10:11:51.426Z,68.8
2017-09-17T10:12:51.731Z,68.51
2017-09-17T10:13:51.731Z,68.9
2017-09-17T10:14:51.731Z,70.34
2017-09-17T10:15:51.730Z,70.15
2017-09-17T10:16:51.722Z,70.05
2017-09-17T10:17:51.726Z,68.99
2017-09-17T10:18:51.720Z,68.8
2017-09-17T10:19:51.718Z,68.03
2017-09-17T10:20:51.718Z,67.35
2017-09-17T10:21:51.713Z,67.93
2017-09-17T10:22:51.400Z,67.35
2017-09-17T10:23:51.712Z,67.26
2017-09-17T10:24:51.710Z,67.26
2017-09-17T10:25:51.708Z,67.26
2017-09-17T10:26:51.703Z,68.32
2017-09-17T10:27:51.698Z,68.38
2017-09-17T10:28:51.699Z,68.32
2017-09-17T10:29:51.697Z,67.99
2017-09-17T10:30:51.694Z,68.76
2017-09-17T10:31:51.693Z,68.7
2017-09-17T10:32:51.690Z,68.67
2017-09-17T10:33:51.687Z,68.57
2017-09-17T10:34:51.686Z,68.67
2017-09-17T10:35:51.678Z,69.53
2017-09-17T10:36:51.683Z,69.24
2017-09-17T10:37:51.676Z,69.34
2017-09-17T10:38:51.676Z,69.06
2017-09-17T10:39:51.671Z,69.34
2017-09-17T10:40:51.673Z,69.63
2017-09-17T10:41:51.665Z,70.01
2017-09-17T10:42:51.661Z,70.11
2017-09-17T10:43:51.659Z,70.11
2017-09-17T10:44:51.696Z,70.3
2017-09-17T10:45:51.656Z,70.5
2017-09-17T10:46:51.652Z,70.5
2017-09-17T10:47:51.650Z,70.59
2017-09-17T10:48:51.651Z,69.82
2017-09-17T10:49:51.646Z,70.4
2017-09-17T10:50:51.649Z,69.73
2017-09-17T10:51:51.329Z,69.06
2017-09-17T10:52:51.640Z,68.86
2017-09-17T10:53:51.637Z,68.96
2017-09-17T10:54:51.633Z,68.09
2017-09-17T10:55:51.631Z,67.42
2017-09-17T10:56:51.630Z,67.03
2017-09-17T10:57:51.630Z,66.36
2017-09-17T10:58:51.624Z,66.46
2017-09-17T10:59:51.310Z,66.46
2017-09-17T11:00:51.623Z,65.88
2017-09-17T11:01:51.614Z,65.4
2017-09-17T11:02:51.610Z,65.56
2017-09-17T11:03:51.608Z,65.46
2017-09-17T11:04:51.605Z,64.98
2017-09-17T11:05:51.603Z,65.75
2017-09-17T11:06:51.599Z,66.42
2017-09-17T11:07:51.597Z,66.42
2017-09-17T11:08:51.595Z,66.42
2017-09-17T11:09:51.592Z,65.66
2017-09-17T11:10:51.279Z,65.84
2017-09-17T11:11:51.278Z,65.46
2017-09-17T11:12:51.581Z,65.27
2017-09-17T11:13:51.578Z,64.89
2017-09-17T11:14:51.265Z,64.31
2017-09-17T11:15:51.264Z,63.35
2017-09-17T11:16:51.263Z,63.25
2017-09-17T11:17:51.568Z,63.06
2017-09-17T11:18:51.563Z,63.06
2017-09-17T11:19:51.562Z,63.15
2017-09-17T11:20:51.557Z,63.45
2017-09-17T11:21:51.557Z,63.73
2017-09-17T11:22:51.555Z,63.45
2017-09-17T11:23:51.241Z,63.83
2017-09-17T11:24:51.238Z,63.35
2017-09-17T11:25:51.546Z,63.25
2017-09-17T11:26:51.551Z,63.25
2017-09-17T11:27:51.538Z,62.87
2017-09-17T11:28:51.537Z,62.96
2017-09-17T11:29:51.529Z,62.87
2017-09-17T11:30:51.531Z,61.91
2017-09-17T11:31:51.527Z,62.68
2017-09-17T11:32:51.527Z,62.1
2017-09-17T11:33:51.519Z,61.91
2017-09-17T11:34:51.514Z,62.68
2017-09-17T11:35:51.514Z,61.91
2017-09-17T11:36:51.514Z,60.69
2017-09-17T11:37:51.506Z,60.49
2017-09-17T11:38:51.503Z,60.3
2017-09-17T11:39:51.502Z,60.11
2017-09-17T11:40:51.497Z,58.57
2017-09-17T11:41:51.500Z,58.28
2017-09-17T11:42:51.492Z,58.09
2017-09-17T11:43:51.490Z,57.32
2017-09-17T11:44:51.486Z,57.03
2017-09-17T11:45:51.486Z,57.22
2017-09-17T11:46:51.485Z,57.6
2017-09-17T11:47:51.476Z,57.51
2017-09-17T11:48:51.475Z,57.13
2017-09-17T11:49:51.473Z,56.55
2017-09-17T11:50:51.472Z,56.48
2017-09-17T11:51:51.467Z,56.38
2017-09-17T11:52:51.157Z,55.62
2017-09-17T11:53:51.464Z,55.13
2017-09-17T11:54:51.459Z,55.13
2017-09-17T11:55:51.457Z,55.65
2017-09-17T11:56:51.457Z,55.16
2017-09-17T11:57:51.448Z,54.49
2017-09-17T11:58:51.451Z,54.49
2017-09-17T11:59:51.446Z,54.58
2017-09-17T12:00:51.448Z,54.2
2017-09-17T12:01:51.443Z,53.84
2017-09-17T12:02:51.442Z,53.65
2017-09-17T12:03:51.435Z,53.55
2017-09-17T12:04:51.438Z,53.65
2017-09-17T12:05:51.122Z,53.27
2017-09-17T12:06:51.431Z,52.81
2017-09-17T12:07:51.430Z,52.52
2017-09-17T12:08:51.426Z,52.81
2017-09-17T12:09:51.422Z,52.81
2017-09-17T12:10:51.423Z,52.81
2017-09-17T12:11:51.419Z,52.81
2017-09-17T12:12:51.109Z,53.39
2017-09-17T12:13:51.418Z,54.64
2017-09-17T12:14:51.416Z,54.83
2017-09-17T12:15:51.418Z,55.48
2017-09-17T12:16:51.420Z,55.96
2017-09-17T12:17:51.408Z,56.25
2017-09-17T12:18:51.406Z,56.15
2017-09-17T12:19:51.408Z,56.25
2017-09-17T12:20:51.403Z,56.63
2017-09-17T12:21:51.403Z,56.35
2017-09-17T12:22:51.400Z,56.25
2017-09-17T12:23:51.400Z,56.82
2017-09-17T12:24:51.399Z,56.82
2017-09-17T12:25:51.392Z,56.6
2017-09-17T12:26:51.396Z,56.99
2017-09-17T12:27:51.391Z,57.67
2017-09-17T12:28:51.386Z,57.67
2017-09-17T12:29:51.389Z,57.6
2017-09-17T12:30:51.387Z,56.73
2017-09-17T12:31:51.076Z,56.15
2017-09-17T12:32:51.379Z,56.05
2017-09-17T12:33:51.382Z,56.44
2017-09-17T12:34:51.376Z,56.63
2017-09-17T12:35:51.379Z,56.15
2017-09-17T12:36:51.378Z,56.73
2017-09-17T12:37:51.375Z,57.12
2017-09-17T12:38:51.378Z,56.54
2017-09-17T12:39:51.372Z,57.31
2017-09-17T12:40:51.370Z,57.21
2017-09-17T12:41:51.369Z,57.67
2017-09-17T12:42:51.058Z,58.34
2017-09-17T12:43:51.364Z,58.53
2017-09-17T12:44:51.365Z,58.63
2017-09-17T12:45:51.358Z,58.82
2017-09-17T12:46:51.052Z,58.72
2017-09-17T12:47:51.366Z,59.4
2017-09-17T12:48:51.360Z,59.59
2017-09-17T12:49:51.356Z,59.49
2017-09-17T12:50:51.356Z,59.49
2017-09-17T12:51:51.351Z,59.59
2017-09-17T12:52:51.352Z,58.85
2017-09-17T12:53:51.352Z,59.52
2017-09-17T12:54:51.348Z,59.78
2017-09-17T12:55:51.345Z,59.52
2017-09-17T12:56:51.345Z,59.52